SBOSBO AUS / KAUS
Speedbird OnlineSpeedbird Online AUS / KAUS

Austin Bergstrom International Airport
08:08 -1.1°C

Location Austin, United States
Latitude: 30.194499969482422
Longitude: -97.6698989868164
Web Airport Website | Wikipedia
Altitude 165 Meter / 542 Feet
Distance 7,928 KM / 4,926 Miles
from London.
Time Zone UTC -6 hours (America/Chicago)
Codes IATA: AUS
ICAO: KAUS
Currency £1 equals USD 1.24
Runways
RunwayLength (m)Surface
18L2743Concrete
18R3733Concrete
36L3733Concrete
36R2743Concrete
Radio
TypeDescriptionFrequency
A/DAPP/DEP118.8
ASOSASOS128.875
ATISATIS124.4
CLDCLNC DEL125.5
GNDGND121.7
OPSARNG OPS36.8
RDOSAN ANGELO RDO122.55
TWRTWR121
UNICUNICOM122.95
Live ATC
METAR KAUS 311253Z 01015KT 9SM OVC009 M01/M02 A3024 RMK AO2 FZRAE19 SLP249 P0000 T10111017 $
TAF KAUS 311120Z 3112/0118 01014KT 4SM -FZDZ BR OVC006 FM311700 36012G22KT 4SM -FZDZ OVC006 FM010300 01012KT 4SM FZRA OVC006 FM010700 01011KT 3SM FZRA OVC004
Weather As Of 31 Jan 2023 08:08
Description Light snow
Wind 20 km/h from North (360°)
Cloud Cover 100%
Precipitation Rain: none, Snow: none
Sunrise 07:21
Sunset 18:06
Lounges American Airlines Admirals Club, Main Terminal
Rotations During the last 90 days there were
80 flights from LHR
82 flights to LHR



Support Speedbird Online

© 2017-2023 Speedbird Online